Tikaboo Peak, Nevada Weather observations

Data are for 10 minute period ending at time listed.
 Day   Time   Solar   Ave.   Ave.  Ave.  Vector  Max.   Baro.   Total    
  of    of     Rad.   Air    Rel.  Wind   Wind   Wind  Press.  Precip.   
Year   Day            Temp.  Hum.  Speed  Dir.   Gust                    
2014   (PST)  Kw/m2    F      %     mph   deg.    mph    mb.     in.     
-------------------------------------------------------------------------
 304    4:40   0.00   47.4    46   15.2   206    26.5   761.3    0.00 
 304    4:50   0.00   47.9    43   16.9   201    24.8   761.2    0.00 
 304    5:00   0.00   48.2    40   15.7   202    26.4   761.1    0.00 
 304    5:10   0.00   48.1    41   15.8   205    24.3   761.2    0.00 
 304    5:20   0.00   48.0    40   12.9   200    21.9   761.1    0.00 
 304    5:30   0.00   48.0    41   12.7   195    20.9   761.1    0.00 
 304    5:40   0.00   47.8    42   12.6   195    20.2   761.0    0.00 
 304    5:50   0.00   47.6    42   14.5   192    23.2   760.8    0.00 
 304    6:00   0.00   47.7    41   16.7   198    26.5   760.8    0.00 
 304    6:10   0.01   48.1    38   18.4   202    27.5   760.9    0.00 
 304    6:20   0.03   48.0    38   19.0   205    25.8   761.0    0.00 
 304    6:30   0.07   48.0    38   14.9   202    23.3   761.1    0.00 
 304    6:40   0.12   48.5    37   14.8   204    22.1   761.1    0.00 
 304    6:50   0.16   49.4    36   14.2   205    20.8   761.2    0.00 
 304    7:00   0.20   50.0    36   17.1   209    22.6   761.3    0.00 
 304    7:10   0.23   50.3    35   16.0   209    20.5   761.4    0.00 
 304    7:20   0.27   50.4    34   15.0   212    19.2   761.4    0.00 
 304    7:30   0.30   51.0    32   16.0   209    20.0   761.5    0.00 
 304    7:40   0.33   51.4    32   16.5   208    20.5   761.5    0.00 
 304    7:50   0.36   51.3    33   15.5   208    21.0   761.6    0.00 
 304    8:00   0.40   52.0    32   13.4   207    17.0   761.6    0.00 
 304    8:10   0.43   52.0    32   14.1   202    21.3   761.7    0.00 
 304    8:20   0.46   52.0    29   16.7   204    23.8   761.6    0.00 
 304    8:30   0.48   51.8    28   19.8   208    25.4   761.6    0.00 
 304    8:40   0.51   51.8    28   18.9   209    25.2   761.6    0.00 
 304    8:50   0.54   52.2    27   18.8   208    27.3   761.7    0.00 
 304    9:00   0.56   52.9    26   19.1   205    27.0   761.5    0.00 
 304    9:10   0.58   53.2    24   20.8   209    28.4   761.6    0.00 
 304    9:20   0.60   53.9    24   15.2   207    22.5   761.7    0.00 
 304    9:30   0.62   54.2    25   15.2   206    24.0   761.6    0.00 
 304    9:40   0.64   54.9    25   15.9   206    22.8   761.6    0.00 
 304    9:50   0.65   54.6    25   16.2   209    24.3   761.6    0.00 
 304   10:00   0.67   54.8    25   14.6   207    24.8   761.5    0.00 
 304   10:10   0.68   55.1    26   14.5   212    27.6   761.6    0.00 
 304   10:20   0.69   54.6    27   17.2   210    25.6   761.4    0.00 
 304   10:30   0.70   54.6    28   16.3   212    26.6   761.3    0.00 
 304   10:40   0.70   55.2    27   16.0   218    23.4   761.3    0.00 
 304   10:50   0.71   55.0    27   14.2   214    25.5   761.2    0.00 
 304   11:00   0.71   54.8    27   17.0   215    29.1   761.1    0.00 
 304   11:10   0.71   54.9    27   17.9   212    28.5   760.9    0.00 
 304   11:20   0.71   54.9    27   15.2   211    23.2   760.9    0.00 
 304   11:30   0.71   55.3    28   13.8   218    24.2   760.7    0.00 
 304   11:40   0.70   56.2    26   12.8   219    21.9   760.7    0.00 
 304   11:50   0.69   56.8    26   13.1   220    26.7   760.4    0.00 
 304   12:00   0.68   57.2    26   13.3   215    24.8   760.2    0.00 
 304   12:10   0.68   56.9    26   13.6   217    21.9   760.1    0.00 
 304   12:20   0.66   57.3    25   13.4   228    25.1   759.9    0.00 
 304   12:30   0.65   56.5    25   16.5   218    29.5   759.8    0.00 
 304   12:40   0.55   56.1    26   15.3   227    32.4   759.7    0.00 
 304   12:50   0.58   55.9    26   17.8   218    27.7   759.6    0.00 
 304   13:00   0.58   56.2    26   15.1   222    24.4   759.4    0.00 
 304   13:10   0.45   56.4    26   14.6   224    28.9   759.3    0.00 
 304   13:20   0.50   56.5    26   15.0   216    22.4   759.2    0.00 
 304   13:30   0.39   55.8    26   15.4   211    24.8   759.2    0.00 
 304   13:40   0.40   56.2    26   11.1   227    21.8   759.2    0.00 
 304   13:50   0.34   56.3    27   14.8   225    24.8   759.1    0.00 
 304   14:00   0.33   56.0    28   17.4   214    27.2   758.9    0.00 
 304   14:10   0.33   55.9    28   12.1   220    25.4   758.9    0.00 
 304   14:20   0.27   55.7    28   16.1   218    23.8   758.9    0.00 
 304   14:30   0.22   55.2    29   18.4   216    25.9   758.8    0.00 
 304   14:40   0.22   54.7    29   17.4   211    26.5   758.7    0.00 
 304   14:50   0.23   54.8    30   19.0   211    29.0   758.6    0.00 
 304   15:00   0.20   54.5    30   20.4   212    29.1   758.3    0.00 
 304   15:10   0.16   54.4    31   16.4   213    24.0   758.4    0.00 
 304   15:20   0.18   54.1    32   17.0   207    28.8   758.3    0.00 
 304   15:30   0.17   54.2    32   17.7   206    27.4   758.3    0.00 
 304   15:40   0.12   53.9    32   13.6   204    20.9   758.3    0.00 
 304   15:50   0.09   53.5    33   12.6   206    24.0   758.2    0.00 
 304   16:00   0.08   53.3    33   12.8   211    21.5   758.0    0.00 
 304   16:10   0.06   53.1    34   12.0   205    22.5   758.0    0.00 
 304   16:20   0.04   52.8    34   10.6   203    22.0   757.9    0.00 
 304   16:30   0.03   52.4    35    9.2   207    16.0   757.8    0.00 
 304   16:40   0.01   52.1    35   13.2   199    22.0   757.6    0.00 
 304   16:50   0.00   52.0    35   13.0   202    22.5   757.4    0.00 
 304   17:00   0.00   51.8    35   11.1   198    20.8   757.2    0.00 
 304   17:10   0.00   51.5    37   12.9   190    22.1   757.2    0.00 
 304   17:20   0.00   51.0    39   12.8   191    23.5   757.0    0.00 
 304   17:30   0.00   50.9    39   15.3   197    26.1   757.1    0.00 
 304   17:40   0.00   50.7    41   15.2   196    24.6   757.0    0.00 
 304   17:50   0.00   50.5    42   15.8   195    27.5   757.1    0.00 
 304   18:00   0.00   50.5    42   16.1   193    26.6   757.0    0.00 
 304   18:10   0.00   50.8    40   18.4   197    28.7   757.0    0.00 
 304   18:20   0.00   50.8    40   16.8   195    28.4   757.0    0.00 
 304   18:30   0.00   50.7    41   16.5   198    29.8   756.8    0.00 
 304   18:40   0.00   50.6    41   16.2   201    28.3   756.9    0.00 
 304   18:50   0.00   50.6    40   19.0   195    28.5   756.7    0.00 
 304   19:00   0.00   50.7    40   19.8   206    32.4   756.6    0.00 
 304   19:10   0.00   50.6    41   20.3   205    31.1   756.6    0.00 
 304   19:20   0.00   50.4    41   22.3   206    35.0   756.5    0.00 
 304   19:30   0.00   50.2    40   21.4   208    31.0   756.4    0.00 
 304   19:40   0.00   50.1    40   20.5   209    30.5   756.3    0.00 
 304   19:50   0.00   50.1    38   20.7   205    31.3   756.1    0.00 
 304   20:00   0.00   50.1    36   18.2   202    30.2   755.9    0.00 
 304   20:10   0.00   50.0    36   15.3   200    26.7   755.9    0.00 
 304   20:20   0.00   50.0    36   17.6   198    28.6   755.8    0.00 
 304   20:30   0.00   49.9    34   18.9   198    31.8   755.6    0.00 
 304   20:40   0.00   49.5    35   18.9   192    31.9   755.5    0.00 
 304   20:50   0.00   49.2    33   19.2   193    32.3   755.4    0.00 
 304   21:00   0.00   49.0    32   19.1   198    33.4   755.3    0.00 
 304   21:10   0.00   48.9    32   21.1   190    34.4   755.1    0.00 
 304   21:20   0.00   48.8    31   20.8   190    36.3   754.9    0.00 
 304   21:30   0.00   48.5    32   16.5   184    28.6   754.8    0.00 
 304   21:40   0.00   47.9    35   14.9   179    25.9   754.9    0.00 
 304   21:50   0.00   47.7    34   15.5   192    27.7   754.8    0.00 
 304   22:00   0.00   47.9    33   17.6   190    31.1   754.8    0.00 
 304   22:10   0.00   47.5    35   16.9   163    25.9   754.4    0.00 
 304   22:20   0.00   46.9    38   19.2   163    30.2   754.2    0.00 
 304   22:30   0.00   46.4    41   21.0   157    33.0   754.0    0.00 
 304   22:40   0.00   46.3    43   19.4   162    31.1   753.7    0.00 
 304   22:50   0.00   45.8    46   23.2   154    34.4   753.5    0.00 
 304   23:00   0.00   45.3    51   26.4   151    40.8   753.1    0.00 
 304   23:10   0.00   44.8    56   27.9   153    42.7   752.8    0.00 
 304   23:20   0.00   44.6    61   29.7   155    42.7   752.7    0.00 
 304   23:30   0.00   44.6    63   28.7   156    43.6   752.7    0.00 
 304   23:40   0.00   44.5    65   24.7   170    42.2   752.8    0.00 
 304   23:50   0.00   44.4    66   19.7   173    32.9   753.0    0.00 
 305    0:00   0.00   44.4    66   18.6   186    33.5   753.1    0.00 
 305    0:10   0.00   44.6    65   13.8   189    26.3   753.0    0.00 
 305    0:20   0.00   44.1    68   14.4   184    32.2   752.8    0.00 
 305    0:30   0.00   44.0    69   15.9   181    28.7   752.6    0.00 
 305    0:40   0.00   43.9    69   18.0   179    28.8   752.3    0.00 
 305    0:50   0.00   43.5    71   15.0   172    28.6   752.3    0.00 
 305    1:00   0.00   43.8    68   22.3   203    44.9   752.4    0.00 
 305    1:10   0.00   44.4    66   20.2   202    36.2   752.4    0.00 
 305    1:20   0.00   43.8    72   15.4   198    27.9   752.5    0.00 
 305    1:30   0.00   43.8    72   16.7   209    35.9   752.5    0.00 
 305    1:40   0.00   44.0    70   12.2   232    27.5   752.4    0.00 
 305    1:50   0.00   43.0    74    7.2   228    12.5   752.4    0.00 
 305    2:00   0.00   41.4    82    9.8   215    16.4   752.3    0.00 
 305    2:10   0.00   40.5    87   13.2   233    21.1   752.1    0.00 
 305    2:20   0.00   39.5    92   14.9   214    24.0   751.9    0.00 
 305    2:30   0.00   39.4    92   19.5   211    29.8   751.5    0.00 
 305    2:40   0.00   39.6    91   23.1   209    35.2   751.3    0.00 
 305    2:50   0.00   39.8    91   26.4   214    39.7   750.9    0.00 
 305    3:00   0.00   40.4    90   28.4   219    41.4   750.7    0.00 
 305    3:10   0.00   40.5    90   27.7   220    39.4   750.8    0.00 
 305    3:20   0.00   40.3    90   23.3   217    35.5   750.9    0.00 
 305    3:30   0.00   39.9    90   23.3   220    34.4   750.9    0.00 
 305    3:40   0.00   40.0    89   23.7   217    37.1   750.9    0.00 
 305    3:50   0.00   39.9    90   20.2   223    31.5   750.9    0.00 
 305    4:00   0.00   39.8    90   19.8   226    31.3   750.9    0.00 
 305    4:10   0.00   39.6    90   18.9   233    54.1   750.9    0.00 
 305    4:20   0.00   37.7    93   26.0   235    42.5   750.7    0.00 
 305    4:30   0.00   36.5    97   23.0   234    38.8   750.8    0.00 

Return to Tikaboo Peak graphs page.


Western Regional Climate Center,wrcc@dri.edu